sensor_id;sensor_type;location;lat;lon;timestamp;P1;durP1;ratioP1;P2;durP2;ratioP2
21034;SDS011;10676;50.848;3.272;2022-10-30T00:00:53;35.85;;;26.63;;
21034;SDS011;10676;50.848;3.272;2022-10-30T00:03:18;39.70;;;25.85;;
21034;SDS011;10676;50.848;3.272;2022-10-30T00:05:45;29.13;;;25.67;;
21034;SDS011;10676;50.848;3.272;2022-10-30T00:08:13;32.28;;;24.42;;
21034;SDS011;10676;50.848;3.272;2022-10-30T00:10:40;36.70;;;26.48;;
21034;SDS011;10676;50.848;3.272;2022-10-30T00:13:06;36.42;;;26.95;;
21034;SDS011;10676;50.848;3.272;2022-10-30T00:15:33;37.85;;;27.27;;
21034;SDS011;10676;50.848;3.272;2022-10-30T00:17:59;36.42;;;26.85;;
21034;SDS011;10676;50.848;3.272;2022-10-30T00:20:25;39.47;;;26.83;;
21034;SDS011;10676;50.848;3.272;2022-10-30T00:22:50;35.05;;;26.25;;
21034;SDS011;10676;50.848;3.272;2022-10-30T00:25:16;40.28;;;26.73;;
21034;SDS011;10676;50.848;3.272;2022-10-30T00:27:42;33.22;;;27.25;;
21034;SDS011;10676;50.848;3.272;2022-10-30T00:30:07;37.20;;;29.83;;
21034;SDS011;10676;50.848;3.272;2022-10-30T00:32:34;33.35;;;27.98;;
21034;SDS011;10676;50.848;3.272;2022-10-30T00:34:59;32.08;;;28.42;;
21034;SDS011;10676;50.848;3.272;2022-10-30T00:37:25;39.42;;;29.95;;
21034;SDS011;10676;50.848;3.272;2022-10-30T00:39:50;36.05;;;28.90;;
21034;SDS011;10676;50.848;3.272;2022-10-30T00:42:16;36.33;;;28.55;;
21034;SDS011;10676;50.848;3.272;2022-10-30T00:44:49;40.65;;;28.63;;
21034;SDS011;10676;50.848;3.272;2022-10-30T00:52:40;44.80;;;27.67;;
21034;SDS011;10676;50.848;3.272;2022-10-30T00:55:18;52.10;;;31.40;;
21034;SDS011;10676;50.848;3.272;2022-10-30T00:57:46;36.58;;;29.20;;
21034;SDS011;10676;50.848;3.272;2022-10-30T01:00:13;37.53;;;31.40;;
21034;SDS011;10676;50.848;3.272;2022-10-30T01:02:39;43.42;;;30.77;;
21034;SDS011;10676;50.848;3.272;2022-10-30T01:05:07;39.05;;;33.40;;
21034;SDS011;10676;50.848;3.272;2022-10-30T01:07:34;38.25;;;32.95;;
21034;SDS011;10676;50.848;3.272;2022-10-30T01:10:00;40.83;;;32.80;;
21034;SDS011;10676;50.848;3.272;2022-10-30T01:12:26;43.17;;;32.38;;
21034;SDS011;10676;50.848;3.272;2022-10-30T01:14:52;40.70;;;32.90;;
21034;SDS011;10676;50.848;3.272;2022-10-30T01:25:13;42.75;;;36.05;;
21034;SDS011;10676;50.848;3.272;2022-10-30T01:27:57;42.00;;;37.47;;
21034;SDS011;10676;50.848;3.272;2022-10-30T01:30:40;44.83;;;35.83;;
21034;SDS011;10676;50.848;3.272;2022-10-30T01:33:15;41.08;;;36.53;;
21034;SDS011;10676;50.848;3.272;2022-10-30T01:36:01;41.85;;;34.80;;
21034;SDS011;10676;50.848;3.272;2022-10-30T01:38:58;44.40;;;34.17;;
21034;SDS011;10676;50.848;3.272;2022-10-30T01:41:27;46.50;;;35.72;;
21034;SDS011;10676;50.848;3.272;2022-10-30T01:43:54;42.05;;;35.25;;
21034;SDS011;10676;50.848;3.272;2022-10-30T01:51:37;44.35;;;39.58;;
21034;SDS011;10676;50.848;3.272;2022-10-30T01:56:38;47.67;;;38.65;;
21034;SDS011;10676;50.848;3.272;2022-10-30T01:59:25;46.38;;;38.97;;
21034;SDS011;10676;50.848;3.272;2022-10-30T02:02:04;44.30;;;36.97;;
21034;SDS011;10676;50.848;3.272;2022-10-30T02:04:31;46.97;;;39.15;;
21034;SDS011;10676;50.848;3.272;2022-10-30T02:06:57;54.20;;;38.90;;
21034;SDS011;10676;50.848;3.272;2022-10-30T02:09:22;46.70;;;41.08;;
21034;SDS011;10676;50.848;3.272;2022-10-30T02:11:49;45.08;;;40.08;;
21034;SDS011;10676;50.848;3.272;2022-10-30T02:14:17;42.30;;;38.00;;
21034;SDS011;10676;50.848;3.272;2022-10-30T02:16:50;46.33;;;41.00;;
21034;SDS011;10676;50.848;3.272;2022-10-30T02:19:18;47.72;;;41.15;;
21034;SDS011;10676;50.848;3.272;2022-10-30T02:21:44;45.65;;;40.78;;
21034;SDS011;10676;50.848;3.272;2022-10-30T02:24:09;49.00;;;40.10;;
21034;SDS011;10676;50.848;3.272;2022-10-30T02:26:35;44.95;;;37.85;;
21034;SDS011;10676;50.848;3.272;2022-10-30T02:29:01;52.88;;;40.50;;
21034;SDS011;10676;50.848;3.272;2022-10-30T02:31:26;52.17;;;40.10;;
21034;SDS011;10676;50.848;3.272;2022-10-30T02:33:52;50.88;;;41.92;;
21034;SDS011;10676;50.848;3.272;2022-10-30T02:36:18;54.28;;;45.28;;
21034;SDS011;10676;50.848;3.272;2022-10-30T02:38:43;57.97;;;46.65;;
21034;SDS011;10676;50.848;3.272;2022-10-30T02:41:09;49.75;;;44.35;;
21034;SDS011;10676;50.848;3.272;2022-10-30T02:43:35;53.97;;;47.35;;
21034;SDS011;10676;50.848;3.272;2022-10-30T02:46:01;52.50;;;43.80;;
21034;SDS011;10676;50.848;3.272;2022-10-30T02:48:28;57.83;;;43.60;;
21034;SDS011;10676;50.848;3.272;2022-10-30T02:50:57;49.40;;;42.90;;
21034;SDS011;10676;50.848;3.272;2022-10-30T02:53:24;45.83;;;40.72;;
21034;SDS011;10676;50.848;3.272;2022-10-30T02:55:49;49.65;;;40.90;;
21034;SDS011;10676;50.848;3.272;2022-10-30T02:58:15;58.10;;;42.00;;
21034;SDS011;10676;50.848;3.272;2022-10-30T03:00:41;55.85;;;41.70;;
21034;SDS011;10676;50.848;3.272;2022-10-30T03:03:06;46.97;;;42.08;;
21034;SDS011;10676;50.848;3.272;2022-10-30T03:05:32;53.15;;;41.97;;
21034;SDS011;10676;50.848;3.272;2022-10-30T03:07:57;54.42;;;41.92;;
21034;SDS011;10676;50.848;3.272;2022-10-30T03:10:23;46.78;;;38.60;;
21034;SDS011;10676;50.848;3.272;2022-10-30T03:12:49;45.30;;;37.05;;
21034;SDS011;10676;50.848;3.272;2022-10-30T03:15:14;50.88;;;39.35;;
21034;SDS011;10676;50.848;3.272;2022-10-30T03:17:40;46.50;;;38.65;;
21034;SDS011;10676;50.848;3.272;2022-10-30T03:20:06;44.13;;;37.92;;
21034;SDS011;10676;50.848;3.272;2022-10-30T03:22:33;49.92;;;38.28;;
21034;SDS011;10676;50.848;3.272;2022-10-30T03:24:59;49.13;;;38.92;;
21034;SDS011;10676;50.848;3.272;2022-10-30T03:27:24;57.05;;;38.88;;
21034;SDS011;10676;50.848;3.272;2022-10-30T03:29:50;49.13;;;37.95;;
21034;SDS011;10676;50.848;3.272;2022-10-30T03:32:15;51.08;;;38.35;;
21034;SDS011;10676;50.848;3.272;2022-10-30T03:34:41;54.28;;;39.78;;
21034;SDS011;10676;50.848;3.272;2022-10-30T03:37:06;55.55;;;39.63;;
21034;SDS011;10676;50.848;3.272;2022-10-30T03:39:32;48.45;;;39.65;;
21034;SDS011;10676;50.848;3.272;2022-10-30T03:41:58;52.17;;;38.60;;
21034;SDS011;10676;50.848;3.272;2022-10-30T03:44:23;52.30;;;37.35;;
21034;SDS011;10676;50.848;3.272;2022-10-30T03:46:49;44.95;;;39.17;;
21034;SDS011;10676;50.848;3.272;2022-10-30T03:49:14;53.45;;;39.38;;
21034;SDS011;10676;50.848;3.272;2022-10-30T03:51:40;51.65;;;39.75;;
21034;SDS011;10676;50.848;3.272;2022-10-30T03:54:05;47.67;;;39.60;;
21034;SDS011;10676;50.848;3.272;2022-10-30T03:56:31;55.67;;;41.95;;
21034;SDS011;10676;50.848;3.272;2022-10-30T03:58:57;63.92;;;40.92;;
21034;SDS011;10676;50.848;3.272;2022-10-30T04:01:22;49.33;;;39.53;;
21034;SDS011;10676;50.848;3.272;2022-10-30T04:03:48;51.50;;;40.95;;
21034;SDS011;10676;50.848;3.272;2022-10-30T04:06:13;57.95;;;39.20;;
21034;SDS011;10676;50.848;3.272;2022-10-30T04:08:39;58.92;;;40.03;;
21034;SDS011;10676;50.848;3.272;2022-10-30T04:11:04;56.05;;;40.58;;
21034;SDS011;10676;50.848;3.272;2022-10-30T04:13:30;55.70;;;39.42;;
21034;SDS011;10676;50.848;3.272;2022-10-30T04:15:56;53.58;;;41.22;;
21034;SDS011;10676;50.848;3.272;2022-10-30T04:18:21;53.22;;;40.72;;
21034;SDS011;10676;50.848;3.272;2022-10-30T04:20:47;62.50;;;41.38;;
21034;SDS011;10676;50.848;3.272;2022-10-30T04:23:14;63.22;;;39.72;;
21034;SDS011;10676;50.848;3.272;2022-10-30T04:25:41;50.65;;;39.97;;
21034;SDS011;10676;50.848;3.272;2022-10-30T04:28:07;49.00;;;39.72;;
21034;SDS011;10676;50.848;3.272;2022-10-30T04:30:34;52.42;;;40.65;;
21034;SDS011;10676;50.848;3.272;2022-10-30T04:33:01;52.50;;;40.05;;
21034;SDS011;10676;50.848;3.272;2022-10-30T04:35:28;52.15;;;40.05;;
21034;SDS011;10676;50.848;3.272;2022-10-30T04:40:23;56.08;;;40.45;;
21034;SDS011;10676;50.848;3.272;2022-10-30T04:42:50;61.70;;;40.70;;
21034;SDS011;10676;50.848;3.272;2022-10-30T04:45:16;55.35;;;40.47;;
21034;SDS011;10676;50.848;3.272;2022-10-30T04:47:42;68.40;;;40.60;;
21034;SDS011;10676;50.848;3.272;2022-10-30T04:50:08;66.88;;;40.55;;
21034;SDS011;10676;50.848;3.272;2022-10-30T04:52:34;67.82;;;42.53;;
21034;SDS011;10676;50.848;3.272;2022-10-30T04:55:00;73.35;;;39.70;;
21034;SDS011;10676;50.848;3.272;2022-10-30T04:57:27;57.72;;;41.80;;
21034;SDS011;10676;50.848;3.272;2022-10-30T04:59:52;59.17;;;39.30;;
21034;SDS011;10676;50.848;3.272;2022-10-30T05:02:18;62.60;;;40.88;;
21034;SDS011;10676;50.848;3.272;2022-10-30T05:04:44;57.40;;;41.35;;
21034;SDS011;10676;50.848;3.272;2022-10-30T05:07:10;55.17;;;40.92;;
21034;SDS011;10676;50.848;3.272;2022-10-30T05:09:37;58.95;;;40.35;;
21034;SDS011;10676;50.848;3.272;2022-10-30T05:12:02;59.17;;;38.85;;
21034;SDS011;10676;50.848;3.272;2022-10-30T05:14:31;56.72;;;40.03;;
21034;SDS011;10676;50.848;3.272;2022-10-30T05:16:57;59.33;;;38.22;;
21034;SDS011;10676;50.848;3.272;2022-10-30T05:19:23;51.35;;;37.70;;
21034;SDS011;10676;50.848;3.272;2022-10-30T05:21:49;59.70;;;37.65;;
21034;SDS011;10676;50.848;3.272;2022-10-30T05:24:15;66.28;;;39.70;;
21034;SDS011;10676;50.848;3.272;2022-10-30T05:26:41;57.65;;;40.13;;
21034;SDS011;10676;50.848;3.272;2022-10-30T05:29:07;56.30;;;36.88;;
21034;SDS011;10676;50.848;3.272;2022-10-30T05:31:32;52.20;;;38.13;;
21034;SDS011;10676;50.848;3.272;2022-10-30T05:33:58;55.60;;;39.42;;
21034;SDS011;10676;50.848;3.272;2022-10-30T05:36:24;51.83;;;37.20;;
21034;SDS011;10676;50.848;3.272;2022-10-30T05:38:49;49.63;;;37.13;;
21034;SDS011;10676;50.848;3.272;2022-10-30T05:41:15;54.17;;;36.72;;
21034;SDS011;10676;50.848;3.272;2022-10-30T05:43:41;53.75;;;37.03;;
21034;SDS011;10676;50.848;3.272;2022-10-30T05:46:06;52.13;;;37.33;;
21034;SDS011;10676;50.848;3.272;2022-10-30T05:48:32;60.40;;;37.67;;
21034;SDS011;10676;50.848;3.272;2022-10-30T05:50:57;54.22;;;35.72;;
21034;SDS011;10676;50.848;3.272;2022-10-30T05:53:23;53.70;;;36.28;;
21034;SDS011;10676;50.848;3.272;2022-10-30T05:55:49;52.92;;;36.53;;
21034;SDS011;10676;50.848;3.272;2022-10-30T05:58:15;56.65;;;38.08;;
21034;SDS011;10676;50.848;3.272;2022-10-30T06:00:41;53.38;;;37.58;;
21034;SDS011;10676;50.848;3.272;2022-10-30T06:03:11;57.97;;;37.85;;
21034;SDS011;10676;50.848;3.272;2022-10-30T06:05:37;54.38;;;36.58;;
21034;SDS011;10676;50.848;3.272;2022-10-30T06:08:04;50.90;;;36.72;;
21034;SDS011;10676;50.848;3.272;2022-10-30T06:10:31;61.47;;;38.03;;
21034;SDS011;10676;50.848;3.272;2022-10-30T06:12:58;61.00;;;36.55;;
21034;SDS011;10676;50.848;3.272;2022-10-30T06:15:24;66.25;;;38.55;;
21034;SDS011;10676;50.848;3.272;2022-10-30T06:17:50;54.92;;;38.90;;
21034;SDS011;10676;50.848;3.272;2022-10-30T06:20:16;58.25;;;39.72;;
21034;SDS011;10676;50.848;3.272;2022-10-30T06:22:56;64.93;;;40.42;;
21034;SDS011;10676;50.848;3.272;2022-10-30T06:25:23;56.67;;;38.45;;
21034;SDS011;10676;50.848;3.272;2022-10-30T06:27:49;62.80;;;43.30;;
21034;SDS011;10676;50.848;3.272;2022-10-30T06:30:15;66.88;;;42.72;;
21034;SDS011;10676;50.848;3.272;2022-10-30T06:32:41;67.55;;;39.67;;
21034;SDS011;10676;50.848;3.272;2022-10-30T06:35:07;62.13;;;41.03;;
21034;SDS011;10676;50.848;3.272;2022-10-30T06:37:33;60.72;;;39.70;;
21034;SDS011;10676;50.848;3.272;2022-10-30T06:39:59;61.15;;;41.42;;
21034;SDS011;10676;50.848;3.272;2022-10-30T06:42:25;60.92;;;39.70;;
21034;SDS011;10676;50.848;3.272;2022-10-30T06:44:50;68.53;;;39.22;;
21034;SDS011;10676;50.848;3.272;2022-10-30T06:47:16;68.20;;;38.17;;
21034;SDS011;10676;50.848;3.272;2022-10-30T06:49:42;56.88;;;38.38;;
21034;SDS011;10676;50.848;3.272;2022-10-30T06:52:07;59.42;;;40.92;;
21034;SDS011;10676;50.848;3.272;2022-10-30T06:54:33;70.55;;;40.50;;
21034;SDS011;10676;50.848;3.272;2022-10-30T06:56:59;58.67;;;40.95;;
21034;SDS011;10676;50.848;3.272;2022-10-30T06:59:25;57.83;;;40.58;;
21034;SDS011;10676;50.848;3.272;2022-10-30T07:01:51;69.25;;;41.40;;
21034;SDS011;10676;50.848;3.272;2022-10-30T07:04:17;60.25;;;41.90;;
21034;SDS011;10676;50.848;3.272;2022-10-30T07:06:43;62.70;;;41.40;;
21034;SDS011;10676;50.848;3.272;2022-10-30T07:09:08;59.83;;;39.38;;
21034;SDS011;10676;50.848;3.272;2022-10-30T07:11:34;63.85;;;40.30;;
21034;SDS011;10676;50.848;3.272;2022-10-30T07:14:00;58.85;;;37.97;;
21034;SDS011;10676;50.848;3.272;2022-10-30T07:16:26;56.08;;;38.28;;
21034;SDS011;10676;50.848;3.272;2022-10-30T07:18:52;56.55;;;37.08;;
21034;SDS011;10676;50.848;3.272;2022-10-30T07:21:17;55.45;;;37.25;;
21034;SDS011;10676;50.848;3.272;2022-10-30T07:23:43;64.00;;;37.50;;
21034;SDS011;10676;50.848;3.272;2022-10-30T07:26:09;52.08;;;34.28;;
21034;SDS011;10676;50.848;3.272;2022-10-30T07:28:34;54.60;;;34.58;;
21034;SDS011;10676;50.848;3.272;2022-10-30T07:31:00;58.40;;;36.10;;
21034;SDS011;10676;50.848;3.272;2022-10-30T07:33:25;51.42;;;33.83;;
21034;SDS011;10676;50.848;3.272;2022-10-30T07:35:51;51.78;;;33.90;;
21034;SDS011;10676;50.848;3.272;2022-10-30T07:38:16;51.47;;;33.78;;
21034;SDS011;10676;50.848;3.272;2022-10-30T07:40:42;54.65;;;34.08;;
21034;SDS011;10676;50.848;3.272;2022-10-30T07:43:08;53.70;;;33.55;;
21034;SDS011;10676;50.848;3.272;2022-10-30T07:45:37;50.10;;;33.17;;
21034;SDS011;10676;50.848;3.272;2022-10-30T07:48:04;50.92;;;33.38;;
21034;SDS011;10676;50.848;3.272;2022-10-30T07:50:30;47.65;;;32.53;;
21034;SDS011;10676;50.848;3.272;2022-10-30T07:52:56;50.55;;;33.97;;
21034;SDS011;10676;50.848;3.272;2022-10-30T07:55:22;49.55;;;31.95;;
21034;SDS011;10676;50.848;3.272;2022-10-30T07:57:48;48.95;;;31.98;;
21034;SDS011;10676;50.848;3.272;2022-10-30T08:00:14;44.72;;;32.08;;
21034;SDS011;10676;50.848;3.272;2022-10-30T08:02:41;42.78;;;32.72;;
21034;SDS011;10676;50.848;3.272;2022-10-30T08:05:07;46.88;;;32.22;;
21034;SDS011;10676;50.848;3.272;2022-10-30T08:07:34;45.72;;;32.28;;
21034;SDS011;10676;50.848;3.272;2022-10-30T08:10:00;47.00;;;31.23;;
21034;SDS011;10676;50.848;3.272;2022-10-30T08:12:26;41.95;;;29.92;;
21034;SDS011;10676;50.848;3.272;2022-10-30T08:14:52;40.97;;;28.13;;
21034;SDS011;10676;50.848;3.272;2022-10-30T08:17:19;35.53;;;26.35;;
21034;SDS011;10676;50.848;3.272;2022-10-30T08:19:45;45.33;;;26.88;;
21034;SDS011;10676;50.848;3.272;2022-10-30T08:22:11;37.40;;;23.90;;
21034;SDS011;10676;50.848;3.272;2022-10-30T08:24:37;36.95;;;21.20;;
21034;SDS011;10676;50.848;3.272;2022-10-30T08:27:02;28.17;;;20.33;;
21034;SDS011;10676;50.848;3.272;2022-10-30T08:29:29;33.85;;;18.25;;
21034;SDS011;10676;50.848;3.272;2022-10-30T08:31:55;24.27;;;16.55;;
21034;SDS011;10676;50.848;3.272;2022-10-30T08:34:21;26.35;;;15.95;;
21034;SDS011;10676;50.848;3.272;2022-10-30T08:36:50;23.85;;;13.55;;
21034;SDS011;10676;50.848;3.272;2022-10-30T08:39:16;24.92;;;13.38;;
21034;SDS011;10676;50.848;3.272;2022-10-30T08:41:42;22.67;;;12.88;;
21034;SDS011;10676;50.848;3.272;2022-10-30T08:44:08;17.73;;;12.52;;
21034;SDS011;10676;50.848;3.272;2022-10-30T08:46:34;22.20;;;14.20;;
21034;SDS011;10676;50.848;3.272;2022-10-30T08:49:00;22.30;;;12.30;;
21034;SDS011;10676;50.848;3.272;2022-10-30T08:51:26;16.67;;;13.27;;
21034;SDS011;10676;50.848;3.272;2022-10-30T08:53:51;23.75;;;17.25;;
21034;SDS011;10676;50.848;3.272;2022-10-30T08:56:17;26.00;;;15.70;;
21034;SDS011;10676;50.848;3.272;2022-10-30T08:58:43;24.40;;;12.07;;
21034;SDS011;10676;50.848;3.272;2022-10-30T09:01:09;21.88;;;11.70;;
21034;SDS011;10676;50.848;3.272;2022-10-30T09:03:34;18.25;;;10.95;;
21034;SDS011;10676;50.848;3.272;2022-10-30T09:06:00;17.05;;;11.07;;
21034;SDS011;10676;50.848;3.272;2022-10-30T09:08:26;18.67;;;10.90;;
21034;SDS011;10676;50.848;3.272;2022-10-30T09:10:53;17.05;;;13.23;;
21034;SDS011;10676;50.848;3.272;2022-10-30T09:13:20;19.55;;;14.45;;
21034;SDS011;10676;50.848;3.272;2022-10-30T09:15:45;18.83;;;12.88;;
21034;SDS011;10676;50.848;3.272;2022-10-30T09:18:11;18.27;;;14.07;;
21034;SDS011;10676;50.848;3.272;2022-10-30T09:20:36;20.80;;;13.20;;
21034;SDS011;10676;50.848;3.272;2022-10-30T09:23:02;18.52;;;13.50;;
21034;SDS011;10676;50.848;3.272;2022-10-30T09:25:28;20.67;;;15.23;;
21034;SDS011;10676;50.848;3.272;2022-10-30T09:27:53;15.02;;;13.23;;
21034;SDS011;10676;50.848;3.272;2022-10-30T09:30:19;18.00;;;15.23;;
21034;SDS011;10676;50.848;3.272;2022-10-30T09:32:45;20.63;;;18.15;;
21034;SDS011;10676;50.848;3.272;2022-10-30T09:35:17;21.90;;;17.10;;
21034;SDS011;10676;50.848;3.272;2022-10-30T09:37:43;19.85;;;16.63;;
21034;SDS011;10676;50.848;3.272;2022-10-30T09:40:09;19.73;;;16.63;;
21034;SDS011;10676;50.848;3.272;2022-10-30T09:43:00;22.13;;;19.05;;
21034;SDS011;10676;50.848;3.272;2022-10-30T09:53:53;22.88;;;17.63;;
21034;SDS011;10676;50.848;3.272;2022-10-30T09:56:42;20.77;;;18.48;;
21034;SDS011;10676;50.848;3.272;2022-10-30T09:59:16;21.80;;;19.65;;
21034;SDS011;10676;50.848;3.272;2022-10-30T10:05:14;23.10;;;20.52;;
21034;SDS011;10676;50.848;3.272;2022-10-30T10:07:54;20.52;;;18.42;;
21034;SDS011;10676;50.848;3.272;2022-10-30T10:10:44;19.92;;;17.92;;
21034;SDS011;10676;50.848;3.272;2022-10-30T10:16:19;18.77;;;16.77;;
21034;SDS011;10676;50.848;3.272;2022-10-30T10:21:32;19.25;;;17.23;;
21034;SDS011;10676;50.848;3.272;2022-10-30T10:24:08;19.80;;;17.15;;
21034;SDS011;10676;50.848;3.272;2022-10-30T10:26:52;20.00;;;17.90;;
21034;SDS011;10676;50.848;3.272;2022-10-30T10:29:46;24.27;;;17.35;;
21034;SDS011;10676;50.848;3.272;2022-10-30T10:43:10;20.05;;;17.90;;
21034;SDS011;10676;50.848;3.272;2022-10-30T10:51:19;15.93;;;13.88;;
21034;SDS011;10676;50.848;3.272;2022-10-30T10:56:28;17.17;;;14.48;;
21034;SDS011;10676;50.848;3.272;2022-10-30T10:58:59;16.58;;;14.75;;
21034;SDS011;10676;50.848;3.272;2022-10-30T11:01:34;14.98;;;13.27;;
21034;SDS011;10676;50.848;3.272;2022-10-30T11:04:23;15.45;;;13.80;;
21034;SDS011;10676;50.848;3.272;2022-10-30T11:06:59;21.08;;;14.65;;
21034;SDS011;10676;50.848;3.272;2022-10-30T11:09:51;15.85;;;14.13;;
21034;SDS011;10676;50.848;3.272;2022-10-30T11:12:19;18.38;;;14.90;;
21034;SDS011;10676;50.848;3.272;2022-10-30T11:14:50;24.98;;;14.00;;
21034;SDS011;10676;50.848;3.272;2022-10-30T11:17:20;19.63;;;14.30;;
21034;SDS011;10676;50.848;3.272;2022-10-30T11:19:57;16.92;;;13.85;;
21034;SDS011;10676;50.848;3.272;2022-10-30T11:22:34;16.23;;;14.20;;
21034;SDS011;10676;50.848;3.272;2022-10-30T11:25:20;15.70;;;14.13;;
21034;SDS011;10676;50.848;3.272;2022-10-30T11:27:47;20.05;;;13.93;;
21034;SDS011;10676;50.848;3.272;2022-10-30T11:30:24;21.65;;;14.93;;
21034;SDS011;10676;50.848;3.272;2022-10-30T11:32:52;16.55;;;13.35;;
21034;SDS011;10676;50.848;3.272;2022-10-30T11:35:19;17.88;;;11.88;;
21034;SDS011;10676;50.848;3.272;2022-10-30T11:37:49;20.77;;;12.68;;
21034;SDS011;10676;50.848;3.272;2022-10-30T11:40:19;22.70;;;13.73;;
21034;SDS011;10676;50.848;3.272;2022-10-30T11:45:29;14.88;;;12.82;;
21034;SDS011;10676;50.848;3.272;2022-10-30T11:48:01;17.63;;;14.77;;
21034;SDS011;10676;50.848;3.272;2022-10-30T11:50:47;22.30;;;13.95;;
21034;SDS011;10676;50.848;3.272;2022-10-30T11:53:25;15.57;;;13.25;;
21034;SDS011;10676;50.848;3.272;2022-10-30T11:55:56;21.45;;;13.48;;
21034;SDS011;10676;50.848;3.272;2022-10-30T12:01:10;15.30;;;13.70;;
21034;SDS011;10676;50.848;3.272;2022-10-30T12:03:46;16.40;;;13.55;;
21034;SDS011;10676;50.848;3.272;2022-10-30T12:06:45;20.00;;;13.85;;
21034;SDS011;10676;50.848;3.272;2022-10-30T12:11:44;22.13;;;13.23;;
21034;SDS011;10676;50.848;3.272;2022-10-30T12:14:20;19.75;;;13.05;;
21034;SDS011;10676;50.848;3.272;2022-10-30T12:16:52;18.20;;;13.10;;
21034;SDS011;10676;50.848;3.272;2022-10-30T12:19:21;15.95;;;14.20;;
21034;SDS011;10676;50.848;3.272;2022-10-30T12:21:49;17.10;;;14.50;;
21034;SDS011;10676;50.848;3.272;2022-10-30T12:24:23;17.38;;;15.13;;
21034;SDS011;10676;50.848;3.272;2022-10-30T12:26:51;17.38;;;15.88;;
21034;SDS011;10676;50.848;3.272;2022-10-30T12:29:19;18.42;;;15.30;;
21034;SDS011;10676;50.848;3.272;2022-10-30T12:31:55;20.77;;;15.70;;
21034;SDS011;10676;50.848;3.272;2022-10-30T12:39:52;16.02;;;14.38;;
21034;SDS011;10676;50.848;3.272;2022-10-30T12:42:19;14.10;;;13.05;;
21034;SDS011;10676;50.848;3.272;2022-10-30T12:44:48;17.10;;;14.48;;
21034;SDS011;10676;50.848;3.272;2022-10-30T12:47:34;16.08;;;14.55;;
21034;SDS011;10676;50.848;3.272;2022-10-30T12:55:48;17.13;;;15.82;;
21034;SDS011;10676;50.848;3.272;2022-10-30T13:01:16;17.88;;;16.20;;
21034;SDS011;10676;50.848;3.272;2022-10-30T13:04:04;18.02;;;16.13;;
21034;SDS011;10676;50.848;3.272;2022-10-30T13:06:45;18.60;;;16.77;;
21034;SDS011;10676;50.848;3.272;2022-10-30T13:09:18;17.58;;;16.15;;
21034;SDS011;10676;50.848;3.272;2022-10-30T13:11:59;18.17;;;16.33;;
21034;SDS011;10676;50.848;3.272;2022-10-30T13:14:37;16.50;;;15.02;;
21034;SDS011;10676;50.848;3.272;2022-10-30T13:17:24;15.73;;;14.43;;
21034;SDS011;10676;50.848;3.272;2022-10-30T13:19:52;17.80;;;13.43;;
21034;SDS011;10676;50.848;3.272;2022-10-30T13:27:50;16.38;;;13.65;;
21034;SDS011;10676;50.848;3.272;2022-10-30T13:30:18;14.85;;;13.52;;
21034;SDS011;10676;50.848;3.272;2022-10-30T13:40:59;18.85;;;17.05;;
21034;SDS011;10676;50.848;3.272;2022-10-30T13:43:36;15.45;;;14.32;;
21034;SDS011;10676;50.848;3.272;2022-10-30T13:52:13;15.75;;;14.45;;
21034;SDS011;10676;50.848;3.272;2022-10-30T13:57:27;12.95;;;11.95;;
21034;SDS011;10676;50.848;3.272;2022-10-30T14:05:46;15.13;;;14.05;;
21034;SDS011;10676;50.848;3.272;2022-10-30T14:11:22;14.82;;;13.45;;
21034;SDS011;10676;50.848;3.272;2022-10-30T14:13:54;16.40;;;14.98;;
21034;SDS011;10676;50.848;3.272;2022-10-30T14:16:35;15.05;;;13.93;;
21034;SDS011;10676;50.848;3.272;2022-10-30T14:19:15;18.88;;;17.40;;
21034;SDS011;10676;50.848;3.272;2022-10-30T14:21:43;15.73;;;14.70;;
21034;SDS011;10676;50.848;3.272;2022-10-30T14:24:32;15.52;;;14.38;;
21034;SDS011;10676;50.848;3.272;2022-10-30T14:31:55;16.73;;;15.18;;
21034;SDS011;10676;50.848;3.272;2022-10-30T14:37:09;14.88;;;13.77;;
21034;SDS011;10676;50.848;3.272;2022-10-30T14:39:42;14.32;;;13.40;;
21034;SDS011;10676;50.848;3.272;2022-10-30T14:42:19;14.75;;;13.63;;
21034;SDS011;10676;50.848;3.272;2022-10-30T14:58:24;16.45;;;15.13;;
21034;SDS011;10676;50.848;3.272;2022-10-30T15:01:15;14.20;;;13.43;;
21034;SDS011;10676;50.848;3.272;2022-10-30T15:06:51;14.18;;;13.05;;
21034;SDS011;10676;50.848;3.272;2022-10-30T15:09:38;14.05;;;12.65;;
21034;SDS011;10676;50.848;3.272;2022-10-30T15:14:46;15.10;;;14.07;;
21034;SDS011;10676;50.848;3.272;2022-10-30T15:17:28;14.18;;;13.27;;
21034;SDS011;10676;50.848;3.272;2022-10-30T15:20:04;15.68;;;14.55;;
21034;SDS011;10676;50.848;3.272;2022-10-30T15:22:52;13.07;;;12.27;;
21034;SDS011;10676;50.848;3.272;2022-10-30T15:25:30;15.75;;;14.20;;
21034;SDS011;10676;50.848;3.272;2022-10-30T15:27:59;17.05;;;15.60;;
21034;SDS011;10676;50.848;3.272;2022-10-30T15:30:26;17.65;;;16.17;;
21034;SDS011;10676;50.848;3.272;2022-10-30T15:32:52;19.50;;;18.17;;
21034;SDS011;10676;50.848;3.272;2022-10-30T15:35:19;17.02;;;15.77;;
21034;SDS011;10676;50.848;3.272;2022-10-30T15:37:59;19.85;;;18.40;;
21034;SDS011;10676;50.848;3.272;2022-10-30T15:40:26;22.27;;;20.83;;
21034;SDS011;10676;50.848;3.272;2022-10-30T15:42:53;19.35;;;17.85;;
21034;SDS011;10676;50.848;3.272;2022-10-30T15:45:24;15.30;;;14.25;;
21034;SDS011;10676;50.848;3.272;2022-10-30T15:47:57;18.92;;;17.42;;
21034;SDS011;10676;50.848;3.272;2022-10-30T15:50:40;17.65;;;16.10;;
21034;SDS011;10676;50.848;3.272;2022-10-30T15:53:16;16.83;;;15.85;;
21034;SDS011;10676;50.848;3.272;2022-10-30T15:55:44;16.20;;;14.95;;
21034;SDS011;10676;50.848;3.272;2022-10-30T15:58:12;15.90;;;14.43;;
21034;SDS011;10676;50.848;3.272;2022-10-30T16:00:41;18.08;;;16.83;;
21034;SDS011;10676;50.848;3.272;2022-10-30T16:03:18;15.00;;;13.80;;
21034;SDS011;10676;50.848;3.272;2022-10-30T16:05:44;13.68;;;12.45;;
21034;SDS011;10676;50.848;3.272;2022-10-30T16:08:14;12.88;;;11.75;;
21034;SDS011;10676;50.848;3.272;2022-10-30T16:10:47;16.70;;;15.40;;
21034;SDS011;10676;50.848;3.272;2022-10-30T16:13:16;22.77;;;21.45;;
21034;SDS011;10676;50.848;3.272;2022-10-30T16:15:44;20.42;;;18.88;;
21034;SDS011;10676;50.848;3.272;2022-10-30T16:21:04;18.05;;;16.65;;
21034;SDS011;10676;50.848;3.272;2022-10-30T16:23:51;20.13;;;18.52;;
21034;SDS011;10676;50.848;3.272;2022-10-30T16:26:32;13.15;;;12.25;;
21034;SDS011;10676;50.848;3.272;2022-10-30T16:31:37;13.75;;;12.90;;
21034;SDS011;10676;50.848;3.272;2022-10-30T16:34:03;22.20;;;20.58;;
21034;SDS011;10676;50.848;3.272;2022-10-30T16:36:36;14.23;;;13.30;;
21034;SDS011;10676;50.848;3.272;2022-10-30T16:39:03;13.27;;;12.50;;
21034;SDS011;10676;50.848;3.272;2022-10-30T16:41:29;12.30;;;11.50;;
21034;SDS011;10676;50.848;3.272;2022-10-30T16:46:37;12.65;;;11.77;;
21034;SDS011;10676;50.848;3.272;2022-10-30T16:49:19;12.35;;;11.30;;
21034;SDS011;10676;50.848;3.272;2022-10-30T16:51:50;13.45;;;12.57;;
21034;SDS011;10676;50.848;3.272;2022-10-30T16:54:31;11.80;;;11.00;;
21034;SDS011;10676;50.848;3.272;2022-10-30T16:57:02;15.25;;;14.35;;
21034;SDS011;10676;50.848;3.272;2022-10-30T16:59:37;16.10;;;14.98;;
21034;SDS011;10676;50.848;3.272;2022-10-30T17:02:14;14.27;;;13.18;;